Time;durP1;ratioP1;P1;durP2;ratioP2;P2;SDS_P1;SDS_P2;PMS_P1;PMS_P2;Temp;Humidity;BMP_temperature;BMP_pressure;BME280_temperature;BME280_humidity;BME280_pressure;Samples;Min_cycle;Max_cycle;Signal;HPM_P1;HPM_P2
2022/04/19 00:00:16;;;;;;;0.17;0.17;;;7.80;99.90;;;;;;5073371;28;20052;-79
2022/04/19 00:02:43;;;;;;;0.10;0.10;;;7.70;99.90;;;;;;5090735;28;20390;-79
2022/04/19 00:05:10;;;;;;;0.10;0.10;;;7.70;99.90;;;;;;5083226;28;20037;-78
2022/04/19 00:07:37;;;;;;;0.10;0.10;;;7.70;99.90;;;;;;5073549;28;20113;-79
2022/04/19 00:10:05;;;;;;;0.10;0.10;;;7.60;99.90;;;;;;5090615;28;20029;-79
2022/04/19 00:12:32;;;;;;;0.13;0.13;;;7.60;99.90;;;;;;5106882;28;20037;-79
2022/04/19 00:14:59;;;;;;;0.10;0.10;;;7.50;99.90;;;;;;5074217;28;20049;-78
2022/04/19 00:17:26;;;;;;;0.10;0.10;;;7.50;99.90;;;;;;5090249;28;20118;-79
2022/04/19 00:19:53;;;;;;;0.10;0.10;;;7.50;99.90;;;;;;5090785;28;20128;-79
2022/04/19 00:22:20;;;;;;;0.10;0.10;;;7.40;99.90;;;;;;5090398;28;20044;-79
2022/04/19 00:24:47;;;;;;;0.10;0.10;;;7.40;99.90;;;;;;5090073;28;20043;-79
2022/04/19 00:27:14;;;;;;;0.10;0.10;;;7.30;99.90;;;;;;5090752;28;20052;-78
2022/04/19 00:29:41;;;;;;;0.10;0.10;;;7.30;99.90;;;;;;5106582;28;20040;-78
2022/04/19 00:32:08;;;;;;;0.10;0.10;;;7.30;99.90;;;;;;5090345;28;20066;-79
2022/04/19 00:34:35;;;;;;;0.10;0.10;;;7.20;99.90;;;;;;5089750;28;20044;-78
2022/04/19 00:37:02;;;;;;;0.13;0.13;;;7.20;99.90;;;;;;5090194;28;20127;-78
2022/04/19 00:39:29;;;;;;;0.15;0.15;;;7.10;99.90;;;;;;5072990;28;20823;-78
2022/04/19 00:41:56;;;;;;;0.15;0.15;;;7.10;99.90;;;;;;5090291;28;20043;-79
2022/04/19 00:44:23;;;;;;;0.10;0.10;;;7.10;99.90;;;;;;5089884;28;20041;-79
2022/04/19 00:46:50;;;;;;;0.10;0.10;;;7.10;99.90;;;;;;5089650;28;20128;-79
2022/04/19 00:49:17;;;;;;;0.10;0.10;;;7.10;99.90;;;;;;5090149;28;20135;-79
2022/04/19 00:51:45;;;;;;;0.10;0.10;;;7.00;99.90;;;;;;5072890;28;20072;-79
2022/04/19 00:54:13;;;;;;;0.10;0.10;;;7.00;99.90;;;;;;5106507;28;20041;-78
2022/04/19 00:56:40;;;;;;;0.10;0.10;;;7.00;99.90;;;;;;5106626;28;20041;-79
2022/04/19 00:59:10;;;;;;;0.13;0.13;;;6.90;99.90;;;;;;5089758;28;20091;-78
2022/04/19 01:01:37;;;;;;;0.10;0.10;;;6.90;99.90;;;;;;5089325;28;20501;-79
2022/04/19 01:04:05;;;;;;;0.17;0.17;;;6.90;99.90;;;;;;5089862;28;20032;-78
2022/04/19 01:06:31;;;;;;;0.10;0.10;;;6.80;99.90;;;;;;5089460;28;20035;-78
2022/04/19 01:08:59;;;;;;;0.40;0.40;;;6.80;99.90;;;;;;5056395;28;20497;-79
2022/04/19 01:14:12;;;;;;;0.05;0.05;;;6.70;99.90;;;;;;5091442;28;20048;-78
2022/04/19 01:16:42;;;;;;;0.20;0.20;;;7.40;99.90;;;;;;5072136;28;20082;-79
2022/04/19 01:19:15;;;;;;;0.10;0.10;;;6.70;99.90;;;;;;5105614;28;20045;-78
2022/04/19 01:21:46;;;;;;;0.15;0.15;;;6.70;99.90;;;;;;5105609;28;20037;-79
2022/04/19 01:24:18;;;;;;;0.17;0.17;;;6.60;99.90;;;;;;5106048;28;20048;-79
2022/04/19 01:26:45;;;;;;;0.10;0.10;;;6.60;99.90;;;;;;5105567;28;20123;-78
2022/04/19 01:29:12;;;;;;;0.20;0.20;;;6.60;99.90;;;;;;5089469;28;20040;-79
2022/04/19 01:31:41;;;;;;;0.17;0.17;;;6.60;99.90;;;;;;5089229;28;20040;-78
2022/04/19 01:34:08;;;;;;;0.20;0.20;;;6.60;99.90;;;;;;5089308;28;20155;-78
2022/04/19 01:36:39;;;;;;;0.10;0.10;;;6.50;99.90;;;;;;5071982;28;20070;-78
2022/04/19 01:39:08;;;;;;;0.10;0.10;;;6.40;99.90;;;;;;5105280;28;20052;-78
2022/04/19 01:41:37;;;;;;;0.15;0.15;;;6.40;99.90;;;;;;5105262;28;20049;-78
2022/04/19 01:44:08;;;;;;;0.15;0.15;;;6.40;99.90;;;;;;5089412;28;20143;-78
2022/04/19 01:46:35;;;;;;;0.10;0.10;;;6.40;99.90;;;;;;5072212;28;20844;-78
2022/04/19 01:49:03;;;;;;;0.10;0.10;;;6.40;99.90;;;;;;5072012;28;20052;-79
2022/04/19 01:51:30;;;;;;;0.20;0.20;;;6.40;99.90;;;;;;5072450;28;20734;-79
2022/04/19 01:53:57;;;;;;;0.52;0.40;;;6.30;99.90;;;;;;5088264;28;20036;-79
2022/04/19 01:56:24;;;;;;;0.20;0.20;;;6.30;99.90;;;;;;5088913;28;20051;-79
2022/04/19 01:58:51;;;;;;;0.10;0.10;;;6.30;99.90;;;;;;5087992;28;20032;-78
2022/04/19 02:01:17;;;;;;;0.20;0.20;;;6.30;99.90;;;;;;5088485;28;20036;-78
2022/04/19 02:03:44;;;;;;;0.20;0.20;;;6.30;99.90;;;;;;5088394;28;20159;-78
2022/04/19 02:06:12;;;;;;;0.10;0.10;;;6.70;99.90;;;;;;5088793;28;20450;-79
2022/04/19 02:08:39;;;;;;;0.20;0.20;;;6.30;99.90;;;;;;5088150;28;20049;-79
2022/04/19 02:11:06;;;;;;;0.10;0.10;;;6.20;99.90;;;;;;5088246;28;20048;-78
2022/04/19 02:13:32;;;;;;;0.20;0.20;;;6.30;99.90;;;;;;5071865;28;20043;-78
2022/04/19 02:16:00;;;;;;;0.10;0.10;;;6.20;99.90;;;;;;5055316;28;20040;-79
2022/04/19 02:18:26;;;;;;;0.10;0.10;;;6.50;99.90;;;;;;5088373;28;20043;-78
2022/04/19 02:20:53;;;;;;;0.10;0.10;;;6.20;99.90;;;;;;5071601;28;20036;-78
2022/04/19 02:23:20;;;;;;;0.20;0.20;;;6.20;99.90;;;;;;5071740;28;20493;-79
2022/04/19 02:25:50;;;;;;;0.20;0.20;;;6.20;99.90;;;;;;5087977;28;20036;-78
2022/04/19 02:28:16;;;;;;;0.10;0.10;;;6.10;99.90;;;;;;5072082;28;20435;-79
2022/04/19 02:30:43;;;;;;;0.10;0.10;;;6.10;99.90;;;;;;5088225;28;20048;-79
2022/04/19 02:33:10;;;;;;;0.10;0.10;;;6.20;99.90;;;;;;5088451;28;20044;-78
2022/04/19 02:35:37;;;;;;;0.10;0.10;;;6.10;99.90;;;;;;5104929;28;20408;-79
2022/04/19 02:38:04;;;;;;;0.20;0.20;;;6.10;99.90;;;;;;5055165;28;20041;-78
2022/04/19 02:40:31;;;;;;;0.13;0.13;;;6.10;99.90;;;;;;5068008;28;20045;-78
2022/04/19 02:42:57;;;;;;;0.20;0.20;;;6.10;99.90;;;;;;5070587;28;20045;-78
2022/04/19 02:45:24;;;;;;;0.17;0.17;;;6.30;99.90;;;;;;5087923;28;20029;-78
2022/04/19 02:48:06;;;;;;;0.10;0.10;;;6.10;99.90;;;;;;5070935;28;20098;-78
2022/04/19 02:50:39;;;;;;;0.10;0.10;;;6.10;99.90;;;;;;5087824;28;20045;-78
2022/04/19 02:53:05;;;;;;;0.10;0.10;;;6.10;99.90;;;;;;5071866;28;20096;-78
2022/04/19 02:55:32;;;;;;;0.10;0.10;;;6.10;99.90;;;;;;5087867;28;20045;-78
2022/04/19 02:57:59;;;;;;;0.10;0.10;;;6.20;99.90;;;;;;5087845;28;20188;-79
2022/04/19 03:00:26;;;;;;;0.10;0.10;;;6.10;99.90;;;;;;5087963;28;20044;-78
2022/04/19 03:02:53;;;;;;;0.10;0.10;;;6.20;99.90;;;;;;5071101;28;20397;-78
2022/04/19 03:05:20;;;;;;;0.10;0.10;;;6.30;99.90;;;;;;5071816;28;20045;-78
2022/04/19 03:07:48;;;;;;;0.10;0.10;;;6.20;99.90;;;;;;5087824;28;20037;-78
2022/04/19 03:10:16;;;;;;;0.08;0.08;;;6.20;99.90;;;;;;5088401;28;20443;-78
2022/04/19 03:12:45;;;;;;;0.40;0.40;;;6.60;99.90;;;;;;5104443;28;20037;-79
2022/04/19 03:15:12;;;;;;;0.20;0.20;;;6.20;99.90;;;;;;5055062;28;20078;-79
2022/04/19 03:17:40;;;;;;;0.20;0.20;;;6.20;99.90;;;;;;5087933;28;20048;-79
2022/04/19 03:20:11;;;;;;;0.10;0.10;;;6.50;99.90;;;;;;5071113;28;20051;-78
2022/04/19 03:28:11;;;;;;;0.10;0.10;;;6.10;99.90;;;;;;5089740;28;20103;-78
2022/04/19 03:30:39;;;;;;;0.10;0.10;;;6.00;99.90;;;;;;5087457;28;20040;-78
2022/04/19 03:33:06;;;;;;;0.10;0.10;;;6.00;99.90;;;;;;5086828;28;20087;-79
2022/04/19 03:35:36;;;;;;;0.10;0.10;;;6.00;99.90;;;;;;5088492;28;20076;-78
2022/04/19 03:38:05;;;;;;;0.20;0.20;;;6.10;99.90;;;;;;5074508;28;20041;-78
2022/04/19 03:40:32;;;;;;;0.13;0.13;;;6.00;99.90;;;;;;5091234;28;20044;-79
2022/04/19 03:42:58;;;;;;;0.20;0.20;;;6.00;99.90;;;;;;5107422;28;20062;-78
2022/04/19 03:45:25;;;;;;;0.20;0.20;;;5.90;99.90;;;;;;5074220;28;20040;-79
2022/04/19 03:47:52;;;;;;;0.20;0.20;;;5.90;99.90;;;;;;5074111;28;20097;-78
2022/04/19 03:50:19;;;;;;;0.20;0.20;;;5.90;99.90;;;;;;5091332;28;20046;-79
2022/04/19 03:52:45;;;;;;;0.20;0.20;;;5.90;99.90;;;;;;5074129;28;20047;-78
2022/04/19 03:55:12;;;;;;;0.20;0.20;;;5.80;99.90;;;;;;5090744;28;20040;-79
2022/04/19 03:57:39;;;;;;;0.20;0.20;;;5.80;99.90;;;;;;5074398;28;20044;-79
2022/04/19 04:00:06;;;;;;;0.15;0.15;;;5.70;99.90;;;;;;5073668;28;20044;-78
2022/04/19 04:02:33;;;;;;;0.10;0.10;;;5.70;99.90;;;;;;5090771;28;20040;-78
2022/04/19 04:05:00;;;;;;;0.20;0.20;;;5.60;99.90;;;;;;5107094;28;20049;-78
2022/04/19 04:07:27;;;;;;;0.10;0.10;;;5.60;99.90;;;;;;5090712;28;20043;-78
2022/04/19 04:09:54;;;;;;;0.10;0.10;;;5.60;99.90;;;;;;5073642;28;20040;-78
2022/04/19 04:12:21;;;;;;;0.20;0.20;;;5.70;99.90;;;;;;5089950;28;20067;-78
2022/04/19 04:14:48;;;;;;;0.85;0.75;;;5.90;99.90;;;;;;5090234;28;20044;-78
2022/04/19 04:17:18;;;;;;;0.10;0.10;;;5.60;99.90;;;;;;5089625;28;20041;-78
2022/04/19 04:19:44;;;;;;;0.20;0.20;;;5.50;99.90;;;;;;5090604;28;20051;-78
2022/04/19 04:22:11;;;;;;;0.10;0.10;;;5.50;99.90;;;;;;5057027;28;20428;-78
2022/04/19 04:24:38;;;;;;;0.20;0.20;;;5.60;99.90;;;;;;5057251;28;20471;-78
2022/04/19 04:27:04;;;;;;;0.13;0.13;;;5.60;99.90;;;;;;5090224;28;20051;-78
2022/04/19 04:29:31;;;;;;;0.20;0.20;;;5.60;99.90;;;;;;5090010;28;20513;-78
2022/04/19 04:31:58;;;;;;;0.10;0.10;;;5.60;99.90;;;;;;5106568;28;20067;-78
2022/04/19 04:34:25;;;;;;;0.10;0.10;;;5.60;99.90;;;;;;5090366;28;20052;-78
2022/04/19 04:36:51;;;;;;;0.20;0.20;;;5.70;99.90;;;;;;5106965;28;20090;-78
2022/04/19 04:39:18;;;;;;;0.20;0.20;;;6.10;99.90;;;;;;5072517;28;20111;-78
2022/04/19 04:41:45;;;;;;;0.20;0.20;;;5.70;99.90;;;;;;5090095;28;20101;-78
2022/04/19 04:44:12;;;;;;;0.10;0.10;;;5.70;99.90;;;;;;5072772;28;20046;-78
2022/04/19 04:49:36;;;;;;;0.20;0.20;;;5.80;99.90;;;;;;5106074;28;20048;-78
2022/04/19 04:52:14;;;;;;;0.17;0.17;;;5.90;99.90;;;;;;5059435;28;20775;-79
2022/04/19 04:54:42;;;;;;;0.20;0.20;;;5.80;99.90;;;;;;5089876;28;20142;-78
2022/04/19 04:57:09;;;;;;;0.10;0.10;;;5.70;99.90;;;;;;5089499;28;20051;-78
2022/04/19 04:59:37;;;;;;;0.13;0.13;;;5.70;99.90;;;;;;5106225;28;20037;-79
2022/04/19 05:02:04;;;;;;;0.20;0.20;;;5.80;99.90;;;;;;5089099;28;20106;-78
2022/04/19 05:04:35;;;;;;;0.13;0.13;;;5.90;99.90;;;;;;5094952;28;20097;-78
2022/04/19 05:07:02;;;;;;;0.10;0.10;;;5.80;99.90;;;;;;5081899;28;20150;-78
2022/04/19 05:09:29;;;;;;;0.10;0.10;;;5.90;99.90;;;;;;5066358;28;20112;-79
2022/04/19 05:11:56;;;;;;;0.20;0.20;;;6.00;99.90;;;;;;5064010;28;20501;-78
2022/04/19 05:14:23;;;;;;;0.10;0.10;;;6.20;99.90;;;;;;5072805;28;20067;-79
2022/04/19 05:16:50;;;;;;;0.20;0.20;;;6.10;99.90;;;;;;5063486;28;20049;-78
2022/04/19 05:19:17;;;;;;;0.20;0.20;;;6.10;99.90;;;;;;5077253;28;20040;-78
2022/04/19 05:21:43;;;;;;;0.17;0.17;;;6.20;99.90;;;;;;5077226;28;20119;-78
2022/04/19 05:24:10;;;;;;;0.20;0.20;;;6.20;99.90;;;;;;5060995;28;20608;-78
2022/04/19 05:26:37;;;;;;;0.10;0.10;;;6.20;99.90;;;;;;5093357;28;20037;-80
2022/04/19 05:29:04;;;;;;;0.10;0.10;;;6.30;99.90;;;;;;5090013;28;20123;-78
2022/04/19 05:31:31;;;;;;;0.20;0.20;;;6.30;99.90;;;;;;5085955;28;20155;-79
2022/04/19 05:33:57;;;;;;;0.20;0.20;;;6.40;99.90;;;;;;5100130;28;20032;-78
2022/04/19 05:36:24;;;;;;;0.20;0.20;;;6.60;99.90;;;;;;5094169;28;20942;-78
2022/04/19 05:38:52;;;;;;;0.20;0.20;;;6.40;99.90;;;;;;5078868;28;20102;-79
2022/04/19 05:41:23;;;;;;;0.15;0.15;;;6.50;99.90;;;;;;5069048;28;20040;-78
2022/04/19 05:43:50;;;;;;;0.10;0.10;;;6.60;99.90;;;;;;5100068;28;20292;-78
2022/04/19 05:46:17;;;;;;;0.20;0.20;;;6.60;99.90;;;;;;5075203;28;20375;-78
2022/04/19 05:48:44;;;;;;;0.20;0.20;;;6.60;99.90;;;;;;5074403;28;20045;-78
2022/04/19 05:51:12;;;;;;;0.20;0.20;;;6.70;99.90;;;;;;5060175;28;20524;-78
2022/04/19 05:53:40;;;;;;;0.20;0.20;;;6.80;99.90;;;;;;5084717;28;20084;-79
2022/04/19 05:56:07;;;;;;;0.10;0.10;;;6.80;99.90;;;;;;5088736;28;20040;-78
2022/04/19 05:58:33;;;;;;;0.20;0.20;;;6.90;99.90;;;;;;5108830;28;20433;-78
2022/04/19 06:01:01;;;;;;;0.20;0.20;;;7.00;99.90;;;;;;5072014;28;20032;-78
2022/04/19 06:06:14;;;;;;;0.10;0.10;;;7.10;99.90;;;;;;5088996;28;20041;-78
2022/04/19 06:08:42;;;;;;;0.20;0.20;;;7.20;99.90;;;;;;5070299;28;20123;-78
2022/04/19 06:11:12;;;;;;;0.20;0.20;;;7.30;99.90;;;;;;5088644;28;20054;-79
2022/04/19 06:13:40;;;;;;;0.20;0.20;;;7.30;99.90;;;;;;5105408;28;20041;-77
2022/04/19 06:16:07;;;;;;;0.20;0.20;;;7.40;99.90;;;;;;5088650;28;20047;-77
2022/04/19 06:18:34;;;;;;;0.10;0.10;;;8.10;99.90;;;;;;5104764;28;20406;-77
2022/04/19 06:21:03;;;;;;;0.10;0.10;;;7.50;99.90;;;;;;5099355;28;20075;-77
2022/04/19 06:23:30;;;;;;;0.20;0.20;;;7.60;99.90;;;;;;5069787;28;20109;-77
2022/04/19 06:25:57;;;;;;;0.20;0.20;;;7.70;99.90;;;;;;5068831;28;20040;-78
2022/04/19 06:28:24;;;;;;;0.20;0.20;;;7.70;99.90;;;;;;5065055;28;20090;-78
2022/04/19 06:30:50;;;;;;;0.10;0.10;;;7.80;99.90;;;;;;5064860;28;20530;-78
2022/04/19 06:33:17;;;;;;;0.10;0.10;;;7.90;99.90;;;;;;5073413;28;20133;-78
2022/04/19 06:35:44;;;;;;;0.20;0.20;;;8.00;99.90;;;;;;5068654;28;20525;-78
2022/04/19 06:38:10;;;;;;;0.10;0.10;;;8.10;99.90;;;;;;5093295;28;20783;-78
2022/04/19 06:40:37;;;;;;;0.10;0.10;;;8.20;99.90;;;;;;5076251;28;20052;-78
2022/04/19 06:43:04;;;;;;;0.20;0.20;;;8.20;99.90;;;;;;5074298;28;20060;-78
2022/04/19 06:45:31;;;;;;;0.20;0.20;;;8.30;99.90;;;;;;5101257;28;20085;-78
2022/04/19 06:48:02;;;;;;;0.20;0.20;;;8.40;99.90;;;;;;5085449;28;20052;-78
2022/04/19 06:50:29;;;;;;;0.10;0.10;;;8.50;99.90;;;;;;5070815;28;20085;-78
2022/04/19 06:52:56;;;;;;;0.10;0.10;;;8.60;99.90;;;;;;5077260;28;20132;-78
2022/04/19 06:55:23;;;;;;;0.10;0.10;;;8.80;99.90;;;;;;5054333;28;20171;-78
2022/04/19 06:57:50;;;;;;;0.10;0.10;;;8.90;99.90;;;;;;5093239;28;20120;-78
2022/04/19 07:00:17;;;;;;;0.10;0.10;;;9.00;99.90;;;;;;5080620;28;20044;-78
2022/04/19 07:02:45;;;;;;;0.10;0.10;;;9.20;99.90;;;;;;5104635;28;20059;-78
2022/04/19 07:05:12;;;;;;;0.10;0.10;;;9.30;99.90;;;;;;5071374;28;20040;-77
2022/04/19 07:07:42;;;;;;;0.13;0.13;;;9.40;99.90;;;;;;5087924;28;20045;-78
2022/04/19 07:10:12;;;;;;;0.10;0.10;;;9.60;99.90;;;;;;5087347;28;20121;-78
2022/04/19 07:12:39;;;;;;;0.10;0.10;;;9.70;99.90;;;;;;5068010;28;20051;-78
2022/04/19 07:15:07;;;;;;;0.10;0.10;;;9.80;99.90;;;;;;5060516;28;20489;-78
2022/04/19 07:17:37;;;;;;;0.10;0.10;;;9.90;99.90;;;;;;5105231;28;20043;-78
2022/04/19 07:28:20;;;;;;;0.10;0.10;;;10.50;99.90;;;;;;5104316;28;20109;-78
2022/04/19 07:30:47;;;;;;;0.10;0.10;;;10.70;99.90;;;;;;5088015;28;20040;-78
2022/04/19 07:33:16;;;;;;;0.10;0.10;;;10.80;99.90;;;;;;5058281;28;20040;-79
2022/04/19 07:35:46;;;;;;;0.10;0.10;;;10.90;99.90;;;;;;5090931;28;20060;-78
2022/04/19 07:38:13;;;;;;;0.10;0.10;;;11.10;99.90;;;;;;5090447;28;20542;-78
2022/04/19 07:40:40;;;;;;;0.10;0.10;;;11.10;99.90;;;;;;5108146;28;20041;-78
2022/04/19 07:43:06;;;;;;;0.10;0.10;;;11.20;99.90;;;;;;5074731;28;20055;-77
2022/04/19 07:45:34;;;;;;;0.10;0.10;;;11.40;99.90;;;;;;5057701;28;20045;-79
2022/04/19 07:48:03;;;;;;;0.10;0.10;;;11.50;99.90;;;;;;5107533;28;20066;-77
2022/04/19 07:50:30;;;;;;;0.03;0.03;;;11.70;99.90;;;;;;5090483;28;20049;-77
2022/04/19 07:52:57;;;;;;;0.08;0.08;;;11.70;99.90;;;;;;5090775;28;20133;-78
2022/04/19 07:55:23;;;;;;;0.10;0.10;;;11.80;99.90;;;;;;5090307;28;20076;-78
2022/04/19 07:57:50;;;;;;;0.10;0.10;;;12.00;99.90;;;;;;5107204;28;20044;-77
2022/04/19 08:00:17;;;;;;;0.00;0.00;;;12.00;99.90;;;;;;5090682;28;20043;-78
2022/04/19 08:02:44;;;;;;;0.10;0.10;;;12.20;99.90;;;;;;5073888;28;20032;-77
2022/04/19 08:05:11;;;;;;;0.10;0.10;;;12.20;99.90;;;;;;5057237;28;20041;-78
2022/04/19 08:07:38;;;;;;;0.30;0.30;;;12.40;99.90;;;;;;5106768;28;20080;-79
2022/04/19 08:10:05;;;;;;;0.10;0.10;;;12.50;99.90;;;;;;5058756;28;20091;-78
2022/04/19 08:12:32;;;;;;;0.10;0.10;;;12.50;99.90;;;;;;5057666;28;20098;-80
2022/04/19 08:14:59;;;;;;;0.10;0.10;;;12.70;99.90;;;;;;5091208;28;20037;-80
2022/04/19 08:17:26;;;;;;;0.10;0.10;;;12.80;99.90;;;;;;5090503;28;20040;-80
2022/04/19 08:19:56;;;;;;;0.10;0.10;;;12.90;99.90;;;;;;5091206;28;20044;-80
2022/04/19 08:22:23;;;;;;;0.10;0.10;;;13.00;99.90;;;;;;5090986;28;20377;-80
2022/04/19 08:24:50;;;;;;;0.10;0.10;;;13.10;99.90;;;;;;5074653;28;20050;-80
2022/04/19 08:27:17;;;;;;;0.10;0.10;;;13.20;99.90;;;;;;5058466;28;20465;-80
2022/04/19 08:29:44;;;;;;;0.00;0.00;;;13.30;99.90;;;;;;5107440;28;20047;-81
2022/04/19 08:32:12;;;;;;;0.13;0.13;;;13.50;99.90;;;;;;5091188;28;20040;-82
2022/04/19 08:34:39;;;;;;;0.10;0.10;;;13.50;99.60;;;;;;5090247;28;20040;-80
2022/04/19 08:37:07;;;;;;;0.10;0.10;;;13.70;99.90;;;;;;5074178;28;20508;-80
2022/04/19 08:39:33;;;;;;;0.10;0.10;;;13.70;98.70;;;;;;5073817;28;20517;-80
2022/04/19 08:42:00;;;;;;;0.10;0.10;;;13.90;98.70;;;;;;5073966;28;20049;-81
2022/04/19 08:44:27;;;;;;;0.10;0.10;;;14.00;98.80;;;;;;5090229;28;20465;-80
2022/04/19 08:46:57;;;;;;;0.00;0.00;;;14.10;98.60;;;;;;5056912;28;20037;-80
2022/04/19 08:49:25;;;;;;;0.00;0.00;;;14.10;98.30;;;;;;5090391;28;20042;-81
2022/04/19 08:51:51;;;;;;;0.08;0.08;;;14.20;98.10;;;;;;5090043;28;20048;-80
2022/04/19 08:59:54;;;;;;;0.10;0.10;;;14.40;96.90;;;;;;5090709;28;20464;-81
2022/04/19 09:02:25;;;;;;;0.10;0.10;;;14.50;97.00;;;;;;5107236;28;20044;-80
2022/04/19 09:04:54;;;;;;;0.00;0.00;;;14.60;96.50;;;;;;5093954;28;20032;-80
2022/04/19 09:07:34;;;;;;;0.10;0.10;;;14.60;95.80;;;;;;5107058;28;20409;-81
2022/04/19 09:10:01;;;;;;;0.10;0.10;;;14.70;95.80;;;;;;5059222;28;20056;-83
2022/04/19 09:12:28;;;;;;;0.00;0.00;;;14.80;96.40;;;;;;5053763;28;20041;-82
2022/04/19 09:14:55;;;;;;;0.00;0.00;;;14.90;95.60;;;;;;5053532;28;20045;-82
2022/04/19 09:17:49;;;;;;;0.03;0.03;;;15.10;94.50;;;;;;5074373;28;20033;-82
2022/04/19 09:20:18;;;;;;;0.03;0.03;;;15.10;94.80;;;;;;5084896;28;20080;-81
2022/04/19 09:22:59;;;;;;;0.10;0.10;;;15.20;94.60;;;;;;5089226;28;20100;-81
2022/04/19 09:25:26;;;;;;;0.00;0.00;;;15.20;93.90;;;;;;5101689;28;20044;-81
2022/04/19 09:27:55;;;;;;;0.00;0.00;;;15.30;94.50;;;;;;5123100;28;20245;-82
2022/04/19 09:30:27;;;;;;;0.00;0.00;;;15.40;94.90;;;;;;5106182;28;20048;-82
2022/04/19 09:33:12;;;;;;;0.03;0.03;;;15.50;94.60;;;;;;5106038;28;20041;-82
2022/04/19 09:35:47;;;;;;;0.00;0.00;;;15.50;94.60;;;;;;5083437;28;20072;-81
2022/04/19 09:38:15;;;;;;;0.00;0.00;;;15.60;94.20;;;;;;5099972;28;20185;-81
2022/04/19 09:40:50;;;;;;;0.00;0.00;;;15.70;93.60;;;;;;5072801;28;20038;-82
2022/04/19 09:43:21;;;;;;;0.00;0.00;;;15.60;94.00;;;;;;5073246;28;20033;-82
2022/04/19 09:45:58;;;;;;;0.15;0.15;;;15.80;93.60;;;;;;5105724;28;20044;-81
2022/04/19 09:48:27;;;;;;;0.00;0.00;;;15.70;93.00;;;;;;5089345;28;20173;-81
2022/04/19 09:50:57;;;;;;;0.10;0.10;;;15.80;94.20;;;;;;5088605;28;20063;-81
2022/04/19 09:53:26;;;;;;;0.00;0.00;;;15.90;93.90;;;;;;5105849;28;20041;-80
2022/04/19 09:55:56;;;;;;;0.10;0.10;;;16.20;93.90;;;;;;5067010;28;20762;-82
2022/04/19 09:58:23;;;;;;;0.03;0.03;;;16.30;93.30;;;;;;5086591;28;20476;-82
2022/04/19 10:00:51;;;;;;;0.28;0.20;;;16.40;92.50;;;;;;5055254;28;20130;-82
2022/04/19 10:08:40;;;;;;;0.00;0.00;;;16.50;90.40;;;;;;5106051;28;20186;-81
2022/04/19 10:11:09;;;;;;;0.00;0.00;;;16.60;90.50;;;;;;5089703;28;20412;-81
2022/04/19 10:13:38;;;;;;;0.00;0.00;;;16.60;90.60;;;;;;5105151;28;20503;-81
2022/04/19 10:16:14;;;;;;;0.10;0.10;;;16.60;88.80;;;;;;5072505;28;20037;-82
2022/04/19 10:18:41;;;;;;;;;;;16.70;88.20;;;;;;5056915;28;20051;-81
2022/04/19 10:21:10;;;;;;;0.03;0.00;;;16.60;87.70;;;;;;5106114;28;20002;-83
2022/04/19 10:23:39;;;;;;;0.15;0.05;;;16.40;85.50;;;;;;5088930;28;20446;-81
2022/04/19 10:26:12;;;;;;;0.57;0.40;;;16.50;86.20;;;;;;5088948;28;20152;-81
2022/04/19 10:28:39;;;;;;;0.00;0.00;;;16.50;87.10;;;;;;5087988;28;20044;-81
2022/04/19 10:31:07;;;;;;;0.05;0.05;;;16.50;86.20;;;;;;5104814;28;20040;-79
2022/04/19 10:33:48;;;;;;;0.05;0.03;;;16.50;85.20;;;;;;5121481;28;20532;-81
2022/04/19 10:36:18;;;;;;;0.13;0.08;;;16.70;85.60;;;;;;5103976;28;20493;-83
2022/04/19 10:38:47;;;;;;;0.20;0.20;;;16.70;84.70;;;;;;5088361;28;20056;-82
2022/04/19 10:42:02;;;;;;;0.00;0.00;;;16.80;81.40;;;;;;5105245;28;20044;-80
2022/04/19 10:44:29;;;;;;;0.08;0.08;;;16.90;86.20;;;;;;5050332;28;20060;-80
2022/04/19 10:47:18;;;;;;;0.30;0.20;;;17.00;82.50;;;;;;5103305;28;20079;-81
2022/04/19 10:49:58;;;;;;;0.00;0.00;;;17.00;83.00;;;;;;5072218;28;20080;-82
2022/04/19 10:52:37;;;;;;;0.10;0.10;;;16.90;81.60;;;;;;5086570;28;20044;-82
2022/04/19 10:55:08;;;;;;;0.08;0.08;;;17.00;82.00;;;;;;5089773;28;20044;-81
2022/04/19 10:58:09;;;;;;;0.20;0.20;;;17.20;84.40;;;;;;5089328;28;20048;-81
2022/04/19 11:00:51;;;;;;;0.20;0.20;;;17.10;82.20;;;;;;5121763;28;20043;-80
2022/04/19 11:03:40;;;;;;;0.30;0.28;;;17.10;82.60;;;;;;5110444;28;20039;-81
2022/04/19 11:06:28;;;;;;;0.38;0.03;;;17.20;83.30;;;;;;5092156;28;20379;-82
2022/04/19 11:09:15;;;;;;;0.10;0.10;;;17.20;82.40;;;;;;5107623;28;20099;-81
2022/04/19 11:11:50;;;;;;;0.17;0.17;;;17.30;82.90;;;;;;5105462;28;20563;-83
2022/04/19 11:14:18;;;;;;;;;;;17.30;80.70;;;;;;5107128;28;20128;-82
2022/04/19 11:16:51;;;;;;;0.35;0.20;;;17.30;79.70;;;;;;5102000;28;19917;-82
2022/04/19 11:19:20;;;;;;;0.22;0.10;;;17.30;81.70;;;;;;5108298;28;20032;-82
2022/04/19 11:21:54;;;;;;;0.10;0.10;;;17.30;80.30;;;;;;5111982;28;20152;-81
2022/04/19 11:25:00;;;;;;;0.05;0.05;;;17.30;79.60;;;;;;5129041;28;20055;-82
2022/04/19 11:27:52;;;;;;;0.40;0.17;;;17.30;78.20;;;;;;5103269;28;20036;-82
2022/04/19 11:30:23;;;;;;;0.05;0.05;;;17.30;80.00;;;;;;5108573;28;20051;-82
2022/04/19 11:32:52;;;;;;;0.00;0.00;;;17.30;79.40;;;;;;5092307;28;20033;-82
2022/04/19 11:35:19;;;;;;;0.17;0.08;;;17.30;80.90;;;;;;5091607;28;20082;-83
2022/04/19 11:37:47;;;;;;;0.17;0.17;;;17.40;80.00;;;;;;5074895;28;20072;-82
2022/04/19 11:48:48;;;;;;;;;;;17.30;79.80;;;;;;5108346;28;20036;-82
2022/04/19 11:51:17;;;;;;;0.10;0.10;;;17.20;78.30;;;;;;5091493;28;19923;-82
2022/04/19 11:53:44;;;;;;;0.45;0.20;;;17.20;80.10;;;;;;5091575;28;20043;-82
2022/04/19 11:56:11;;;;;;;0.30;0.28;;;17.20;79.20;;;;;;5057583;28;20033;-81
2022/04/19 11:58:41;;;;;;;0.10;0.10;;;17.20;80.00;;;;;;5074410;28;20036;-82
2022/04/19 12:01:09;;;;;;;0.22;0.17;;;17.30;79.20;;;;;;5091501;28;20051;-82
2022/04/19 12:03:37;;;;;;;0.30;0.30;;;17.40;79.40;;;;;;5078016;28;20123;-82
2022/04/19 12:06:08;;;;;;;0.17;0.10;;;17.40;78.00;;;;;;5107026;28;20033;-82
2022/04/19 12:08:41;;;;;;;0.47;0.40;;;17.40;79.40;;;;;;5084097;28;20036;-82
2022/04/19 12:11:16;;;;;;;0.38;0.10;;;17.50;78.80;;;;;;5092447;28;20044;-83
2022/04/19 12:13:47;;;;;;;0.15;0.10;;;17.60;78.20;;;;;;5082793;28;20292;-82
2022/04/19 12:16:34;;;;;;;0.10;0.10;;;17.70;80.70;;;;;;5070317;28;20505;-82
2022/04/19 12:19:09;;;;;;;0.28;0.22;;;17.60;77.70;;;;;;5094190;28;20045;-81
2022/04/19 12:21:39;;;;;;;0.00;0.00;;;17.50;75.50;;;;;;5075063;28;20833;-82
2022/04/19 12:24:08;;;;;;;0.00;0.00;;;17.60;78.20;;;;;;5107721;28;20161;-81
2022/04/19 12:26:36;;;;;;;0.10;0.10;;;17.60;79.30;;;;;;5090874;28;20043;-81
2022/04/19 12:29:12;;;;;;;0.32;0.30;;;17.80;79.50;;;;;;5074146;28;20070;-81
2022/04/19 12:31:46;;;;;;;0.10;0.10;;;17.70;77.40;;;;;;5092280;28;20052;-81
2022/04/19 12:34:15;;;;;;;0.22;0.20;;;17.70;77.80;;;;;;5108187;28;20044;-81
2022/04/19 12:36:46;;;;;;;0.03;0.03;;;17.60;77.70;;;;;;5074224;28;20063;-83
2022/04/19 12:39:14;;;;;;;0.60;0.40;;;17.60;79.20;;;;;;5123374;28;20056;-83
2022/04/19 12:41:45;;;;;;;0.10;0.10;;;17.70;79.40;;;;;;5073623;28;20119;-83
2022/04/19 12:44:14;;;;;;;0.10;0.10;;;17.70;77.90;;;;;;5085441;28;20097;-82
2022/04/19 12:46:52;;;;;;;0.40;0.22;;;17.70;76.60;;;;;;5090161;28;20489;-81
2022/04/19 12:49:24;;;;;;;0.10;0.10;;;17.70;77.20;;;;;;5090193;28;20036;-82
2022/04/19 12:52:17;;;;;;;0.10;0.10;;;17.70;77.90;;;;;;5090842;28;20140;-83
2022/04/19 12:54:47;;;;;;;0.00;0.00;;;17.80;78.30;;;;;;5087464;28;20053;-83
2022/04/19 12:57:18;;;;;;;0.38;0.20;;;17.80;77.00;;;;;;5100536;28;20037;-80
2022/04/19 12:59:45;;;;;;;0.00;0.00;;;17.80;78.20;;;;;;5083640;28;20041;-81
2022/04/19 13:02:14;;;;;;;0.40;0.25;;;17.70;78.70;;;;;;5062712;28;20086;-81
2022/04/19 13:04:41;;;;;;;0.22;0.17;;;17.80;78.50;;;;;;5083952;28;20036;-81
2022/04/19 13:12:41;;;;;;;0.60;0.50;;;17.40;76.90;;;;;;5081094;28;20559;-80
2022/04/19 13:15:08;;;;;;;0.20;0.20;;;17.40;77.80;;;;;;5105607;28;20752;-80
2022/04/19 13:17:41;;;;;;;0.20;0.20;;;17.50;76.80;;;;;;5072942;28;20129;-80
2022/04/19 13:20:09;;;;;;;0.20;0.20;;;17.50;77.10;;;;;;5109256;28;20032;-79
2022/04/19 13:22:36;;;;;;;0.30;0.30;;;17.50;76.60;;;;;;5100139;28;20040;-81
2022/04/19 13:25:05;;;;;;;0.20;0.20;;;17.50;77.10;;;;;;5061872;28;20352;-80
2022/04/19 13:27:35;;;;;;;0.10;0.10;;;17.50;76.70;;;;;;5089267;28;20047;-79
2022/04/19 13:30:07;;;;;;;0.25;0.20;;;17.50;76.80;;;;;;5087785;28;20123;-80
2022/04/19 13:32:35;;;;;;;0.08;0.05;;;17.40;75.00;;;;;;5083458;28;20036;-80
2022/04/19 13:35:02;;;;;;;0.45;0.30;;;17.40;76.10;;;;;;5067124;28;20036;-79
2022/04/19 13:40:13;;;;;;;0.10;0.10;;;17.30;76.10;;;;;;5090293;28;20044;-79
2022/04/19 13:42:41;;;;;;;0.10;0.10;;;17.40;76.40;;;;;;5056502;28;20500;-80
2022/04/19 13:45:08;;;;;;;0.57;0.20;;;17.40;76.50;;;;;;5072180;28;20805;-80
2022/04/19 13:47:35;;;;;;;0.38;0.30;;;17.40;75.40;;;;;;5068746;28;20029;-83
2022/04/19 13:50:03;;;;;;;0.40;0.30;;;17.30;75.40;;;;;;5085728;28;20463;-79
2022/04/19 13:52:33;;;;;;;0.00;0.00;;;17.30;74.70;;;;;;5085675;28;20498;-82